KRBG/RBG METAR and TAF weather

Enter ICAO airport designator
Station Type Date Time Source
KRBG METAR 2020/02/16 19:53 UTC NOAA

KRBG 161953Z AUTO 36006KT 10SM FEW025 SCT033 11/04 A3032 RMK AO2 SLP268 T01110039


Station Type Date Time Source
KRBG Decoded METAR 2020/02/16 19:53 UTC NOAA

ROSEBURG REGIONAL AIRPORT, OR, United States (KRBG) 43-14N 123-21W 154M
Feb 16, 2020 - 02:53 PM EST / 2020.02.16 1953 UTC
Wind: from the N (360 degrees) at 7 MPH (6 KT):0
Visibility: 10 mile(s):0
Sky conditions: partly cloudy
Temperature: 52.0 F (11.1 C)
Dew Point: 39.0 F (3.9 C)
Relative Humidity: 61%
Pressure (altimeter): 30.32 in. Hg (1026 hPa)
ob: KRBG 161953Z AUTO 36006KT 10SM FEW025 SCT033 11/04 A3032 RMK AO2 SLP268 T01110039
cycle: 20

Station Type Date Time Source
KRBG TAF 2020/02/16 19:06 UTC NOAA

TAF
AMD KRBG 161905Z 1619/1718 35004KT P6SM -RA OVC035
TEMPO 1619/1621 BKN025
FM162200 34006KT P6SM SCT030
FM170600 00000KT P6SM BKN005
FM171700 00000KT P6SM BKN012

Example: see airport list